Terminal Aerodrome Forecast
Issued by NWS Shreveport, LA

Home | Current Version | Previous Version | Text Only | Print | Product List | Glossary On
Versions: 1 2 3 4 5 6 7 8 9 10 11 12 13 14
549
FTUS44 KSHV 260542
TAFELD
TAF
KELD 260542Z 2606/2706 16008KT P6SM FEW250
     FM261400 20013G22KT P6SM OVC015
     FM261800 19018G24KT P6SM BKN025
     FM262000 19016G22KT P6SM BKN050
     FM270000 19011KT P6SM BKN045=

USA.gov is the U.S. government's official web portal to all federal, state and local government web resources and services.